Tuesday, October 21, 2014
10:27 UTC
  |  Log In   |  Register Free
Airport Search:

Durant Regional - Eaker Field Airport
(KDUA)

Durant Regional - Eaker Field Airport Diagram
No Airport Diagram Available

FAA data valid effective September 18, 2014 - November 13, 2014 (unless otherwise noted).

 
 
 
 
 
 
 
 
 
 
 
 
 
 

Current Aviation Weather for Durant Regional - Eaker Field Airport (KDUA)

The most recent METAR observation for KDUA was updated at: 1012
METAR Summary (Translated METAR)
KDUA
210955Z AUTO 00000KT 10SM CLR 16/15 A3005 RMK AO2
KGYI
210955Z AUTO 00000KT 10SM CLR 16/15 A3007 RMK AO2 T01580145
(19.5 nm SW from KDUA)
KAQR
210955Z AUTO 00000KT 3SM BR CLR 13/13 A3006 RMK AO2
(30 nm NE from KDUA)
TAF
No TAF information found within 50 nm of KDUA
  Airport Weather Conditions for KDUA

 Current Weather at DUA
61° F
Fair
North winds at 0.0 mph
DUA NOAA Radar

Pressure: 30.05 in
Humidity: 94%
Wind: Calm
Dew Point: 59.0°F
Visibility: 10.00 mi


Airport Weather Forecast for KDUA

Translated METAR and TAF for KDUA
Translated METAR for KDUA (1022 UTC 21 October 2014)
found at http://aviationweather.gov/adds/metars/
 
METAR text: KDUA 211015Z AUTO 00000KT 10SM CLR 16/15 A3006 RMK AO2
Conditions at: KDUA (DURANT , OK, US) observed 1015 UTC 21 October 2014
Temperature: 16.0°C (61°F)
Dewpoint: 15.0°C (59°F) [RH = 94%]
Pressure (altimeter): 30.06 inches Hg (1018.0 mb)
Winds: calm
Visibility: 10 or more miles (16+ km)
Ceiling: at least 12,000 feet AGL
Clouds: sky clear below 12,000 feet AGL
Weather: automated observation with no human augmentation;
there may or may not be significant weather present at this time
Translated TAF for KDUA

There is no translated TAF available for this airport

Find All Airport Services Find A Hotel Find A Rental Car Find A Golf Course Find A Restaurant $100 Hamburger



FBO's on the Field
FBO Company Facility Photos Services Transportation Aviation Fuel Prices: Prices include tax
Catering Weather Repair Courtesy Rental Type 100LL JetA JetA+ MOGAS 8087
 
D/W Aviation

This FBO has not yet been rated
FS:Avfuel
Last Updated: Oct-20
Login to update fuel prices
SS:
Contact D/W AviationMore FBO Information
 
Add another FBO Facility Photos Catering Weather Repair Courtesy Rental Type 100LL JetA JetA+ MOGAS 8087
Services Transportation Aviation Fuel Prices: Prices include tax


model-print
model-print
model-print
model-print